Time;durP1;ratioP1;P1;durP2;ratioP2;P2;SDS_P1;SDS_P2;PMS_P1;PMS_P2;Temp;Humidity;BMP_temperature;BMP_pressure;BME280_temperature;BME280_humidity;BME280_pressure;Samples;Min_cycle;Max_cycle;Signal;HPM_P1;HPM_P2
2023/01/26 00:00:27;;;;;;;;;;;6.50;99.90;;;;;;5031058;28;19916;-69
2023/01/26 00:02:52;;;;;;;;;;;6.40;99.90;;;;;;5024863;28;19964;-67
2023/01/26 00:05:18;;;;;;;;;;;6.50;99.90;;;;;;5031910;28;19963;-68
2023/01/26 00:07:44;;;;;;;;;;;6.50;99.90;;;;;;5023642;28;19910;-69
2023/01/26 00:10:13;;;;;;;;;;;6.50;99.90;;;;;;5029627;28;20303;-68
2023/01/26 00:12:39;;;;;;;;;;;6.50;99.90;;;;;;5019399;28;19909;-69
2023/01/26 00:15:05;;;;;;;;;;;6.50;99.90;;;;;;5026263;28;19932;-69
2023/01/26 00:17:30;;;;;;;;;;;6.50;99.90;;;;;;5030603;28;19913;-67
2023/01/26 00:19:57;;;;;;;;;;;6.50;99.90;;;;;;5023439;28;19910;-68
2023/01/26 00:22:23;;;;;;;;;;;6.50;99.90;;;;;;5031497;28;19916;-68
2023/01/26 00:24:49;;;;;;;;;;;6.50;99.90;;;;;;5029318;28;20308;-69
2023/01/26 00:27:15;;;;;;;;;;;6.50;99.90;;;;;;5030115;28;19916;-68
2023/01/26 00:29:41;;;;;;;;;;;6.40;99.90;;;;;;5025576;28;19924;-69
2023/01/26 00:32:06;;;;;;;;;;;6.50;99.90;;;;;;5022155;28;20016;-69
2023/01/26 00:34:32;;;;;;;;;;;6.50;99.90;;;;;;5028405;28;19909;-68
2023/01/26 00:36:57;;;;;;;;;;;6.50;99.90;;;;;;5022025;28;19910;-68
2023/01/26 00:39:23;;;;;;;;;;;6.50;99.90;;;;;;5027731;28;20004;-69
2023/01/26 00:42:10;;;;;;;;;;;6.40;99.90;;;;;;5030357;28;19966;-68
2023/01/26 00:44:36;;;;;;;;;;;6.30;99.90;;;;;;5027304;28;19917;-68
2023/01/26 00:47:02;;;;;;;;;;;6.10;99.90;;;;;;5014479;28;19963;-68
2023/01/26 00:49:27;;;;;;;;;;;5.90;99.90;;;;;;5026100;28;19909;-68
2023/01/26 00:51:53;;;;;;;;;;;5.80;99.90;;;;;;5027507;28;19966;-68
2023/01/26 00:54:19;;;;;;;;;;;5.70;99.90;;;;;;5024463;28;19916;-68
2023/01/26 00:56:44;;;;;;;;;;;5.50;99.90;;;;;;5024788;28;20000;-67
2023/01/26 00:59:10;;;;;;;;;;;5.40;99.90;;;;;;5026490;28;19999;-68
2023/01/26 01:01:36;;;;;;;;;;;5.30;99.90;;;;;;5031749;28;19909;-68
2023/01/26 01:04:02;;;;;;;;;;;5.20;99.90;;;;;;5020531;28;20438;-68
2023/01/26 01:06:28;;;;;;;;;;;5.20;99.90;;;;;;5023448;28;19952;-68
2023/01/26 01:08:53;;;;;;;;;;;5.10;99.90;;;;;;5022592;28;19909;-68
2023/01/26 01:11:19;;;;;;;;;;;5.10;99.90;;;;;;5017946;28;19924;-67
2023/01/26 01:13:45;;;;;;;;;;;5.00;99.90;;;;;;5026329;28;19909;-68
2023/01/26 01:16:12;;;;;;;;;;;5.00;99.90;;;;;;5019119;28;19913;-69
2023/01/26 01:18:38;;;;;;;;;;;4.80;99.90;;;;;;5019369;28;19910;-68
2023/01/26 01:21:07;;;;;;;;;;;4.90;99.90;;;;;;5021413;28;20018;-68
2023/01/26 01:23:32;;;;;;;;;;;5.00;99.90;;;;;;5028111;28;19909;-68
2023/01/26 01:25:58;;;;;;;;;;;5.00;99.90;;;;;;5021679;28;20270;-68
2023/01/26 01:28:25;;;;;;;;;;;5.00;99.90;;;;;;5028359;28;20007;-68
2023/01/26 01:30:50;;;;;;;;;;;5.10;99.90;;;;;;5024403;28;19920;-68
2023/01/26 01:33:16;;;;;;;;;;;5.20;99.90;;;;;;5018166;28;20281;-67
2023/01/26 01:35:41;;;;;;;;;;;5.30;99.90;;;;;;5015773;28;19956;-68
2023/01/26 01:38:07;;;;;;;;;;;5.30;99.90;;;;;;5039357;28;19908;-68
2023/01/26 01:40:33;;;;;;;;;;;5.30;99.90;;;;;;5022140;28;20365;-68
2023/01/26 01:42:58;;;;;;;;;;;5.40;99.90;;;;;;5036858;28;19916;-67
2023/01/26 01:45:28;;;;;;;;;;;5.40;99.90;;;;;;5017066;28;19917;-68
2023/01/26 01:47:55;;;;;;;;;;;5.50;99.90;;;;;;5022666;28;19913;-68
2023/01/26 01:50:21;;;;;;;;;;;5.50;99.90;;;;;;5015605;28;20296;-68
2023/01/26 01:52:47;;;;;;;;;;;5.50;99.90;;;;;;5027067;28;20003;-67
2023/01/26 01:55:14;;;;;;;;;;;5.50;99.90;;;;;;5027390;28;20004;-68
2023/01/26 01:57:45;;;;;;;;;;;5.50;99.90;;;;;;5019571;28;20425;-68
2023/01/26 02:00:15;;;;;;;;;;;5.50;99.90;;;;;;5025965;28;19913;-69
2023/01/26 02:02:42;;;;;;;;;;;5.50;99.90;;;;;;5027579;28;19913;-68
2023/01/26 02:05:14;;;;;;;;;;;5.50;99.90;;;;;;5027592;28;19909;-68
2023/01/26 02:07:40;;;;;;;;;;;5.60;99.90;;;;;;5020986;28;19948;-67
2023/01/26 02:10:18;;;;;;;;;;;5.50;99.90;;;;;;5028099;28;19960;-68
2023/01/26 02:12:45;;;;;;;;;;;5.50;99.90;;;;;;5023020;28;19948;-68
2023/01/26 02:15:11;;;;;;;;;;;5.40;99.90;;;;;;5020792;28;19913;-68
2023/01/26 02:17:38;;;;;;;;;;;5.40;99.90;;;;;;5025091;28;19916;-68
2023/01/26 02:20:04;;;;;;;;;;;5.30;99.90;;;;;;5023690;28;19939;-68
2023/01/26 02:22:30;;;;;;;;;;;5.30;99.90;;;;;;5028213;28;19909;-68
2023/01/26 02:24:57;;;;;;;;;;;5.30;99.90;;;;;;5020036;28;20285;-68
2023/01/26 02:27:23;;;;;;;;;;;5.10;99.90;;;;;;5025817;28;19909;-69
2023/01/26 02:29:50;;;;;;;;;;;5.00;99.90;;;;;;5022722;28;19920;-69
2023/01/26 02:32:15;;;;;;;;;;;5.00;99.90;;;;;;5027149;28;19909;-67
2023/01/26 02:34:41;;;;;;;;;;;5.00;99.90;;;;;;5025209;28;19909;-68
2023/01/26 02:37:12;;;;;;;;;;;5.00;99.90;;;;;;5021879;28;20403;-69
2023/01/26 02:39:48;;;;;;;;;;;5.00;99.90;;;;;;5026984;28;19915;-68
2023/01/26 02:44:58;;;;;;;;;;;5.00;99.90;;;;;;5016837;28;19924;-68
2023/01/26 02:47:23;;;;;;;;;;;5.00;99.90;;;;;;5021684;28;19913;-68
2023/01/26 02:49:49;;;;;;;;;;;5.10;99.90;;;;;;5017843;28;19967;-69
2023/01/26 02:52:17;;;;;;;;;;;5.20;99.90;;;;;;5020834;28;20360;-68
2023/01/26 02:57:26;;;;;;;;;;;5.20;99.90;;;;;;5019150;28;20364;-68
2023/01/26 02:59:52;;;;;;;;;;;5.20;99.90;;;;;;5023661;28;19913;-68
2023/01/26 03:02:18;;;;;;;;;;;5.10;99.90;;;;;;5024532;28;19991;-68
2023/01/26 03:04:44;;;;;;;;;;;5.00;99.90;;;;;;5021732;28;19959;-68
2023/01/26 03:07:09;;;;;;;;;;;4.90;99.90;;;;;;5022553;28;19909;-68
2023/01/26 03:09:35;;;;;;;;;;;4.80;99.90;;;;;;5018149;28;19909;-69
2023/01/26 03:12:00;;;;;;;;;;;4.70;99.90;;;;;;5025605;28;19917;-67
2023/01/26 03:14:26;;;;;;;;;;;4.60;99.90;;;;;;5019766;28;19910;-68
2023/01/26 03:16:52;;;;;;;;;;;4.60;99.90;;;;;;5017805;28;19909;-68
2023/01/26 03:27:33;;;;;;;;;;;4.40;99.90;;;;;;5023588;28;19915;-68
2023/01/26 03:29:59;;;;;;;;;;;4.30;99.90;;;;;;5023519;28;19917;-68
2023/01/26 03:32:25;;;;;;;;;;;4.30;99.90;;;;;;5020368;28;19964;-68
2023/01/26 03:34:51;;;;;;;;;;;4.30;99.90;;;;;;5024817;28;19913;-68
2023/01/26 03:37:21;;;;;;;;;;;4.30;99.90;;;;;;5020811;28;20381;-68
2023/01/26 03:56:20;;;;;;;;;;;4.20;99.90;;;;;;5032714;28;20427;-68
2023/01/26 03:58:47;;;;;;;;;;;4.10;99.90;;;;;;5023415;28;19910;-68
2023/01/26 04:01:18;;;;;;;;;;;4.20;99.90;;;;;;5029847;28;19916;-68
2023/01/26 04:09:17;;;;;;;;;;;4.10;99.90;;;;;;5028780;28;19916;-68
2023/01/26 04:11:42;;;;;;;;;;;4.10;99.90;;;;;;5031199;28;20019;-68
2023/01/26 04:22:25;;;;;;;;;;;3.90;99.90;;;;;;5023855;28;19948;-68
2023/01/26 04:24:51;;;;;;;;;;;3.90;99.90;;;;;;5029193;28;19956;-68
2023/01/26 04:27:16;;;;;;;;;;;3.90;99.90;;;;;;5028199;28;20341;-68
2023/01/26 04:29:42;;;;;;;;;;;3.90;99.90;;;;;;5024550;28;19956;-66
2023/01/26 04:32:07;;;;;;;;;;;3.90;99.90;;;;;;5030109;28;19963;-67
2023/01/26 04:34:33;;;;;;;;;;;3.90;99.90;;;;;;5020769;28;19952;-67
2023/01/26 04:36:58;;;;;;;;;;;4.10;99.90;;;;;;5027538;28;19909;-67
2023/01/26 04:39:24;;;;;;;;;;;4.20;99.90;;;;;;5027258;28;19920;-68
2023/01/26 04:41:50;;;;;;;;;;;4.30;99.90;;;;;;5029688;28;19971;-67
2023/01/26 04:44:15;;;;;;;;;;;4.40;99.90;;;;;;5028734;28;19917;-68
2023/01/26 04:46:41;;;;;;;;;;;4.40;99.90;;;;;;5027617;28;20387;-68
2023/01/26 04:49:07;;;;;;;;;;;4.40;99.90;;;;;;5027796;28;19909;-68
2023/01/26 04:51:33;;;;;;;;;;;4.50;99.90;;;;;;5025559;28;19917;-68
2023/01/26 04:53:59;;;;;;;;;;;4.40;99.90;;;;;;5027513;28;19916;-68
2023/01/26 04:56:26;;;;;;;;;;;4.40;99.90;;;;;;5024837;28;20278;-68
2023/01/26 04:58:52;;;;;;;;;;;4.40;99.90;;;;;;5029486;28;20380;-69
2023/01/26 05:01:18;;;;;;;;;;;4.40;99.90;;;;;;5026657;28;20266;-69
2023/01/26 05:03:44;;;;;;;;;;;4.40;99.90;;;;;;5021864;28;20008;-69
2023/01/26 05:06:10;;;;;;;;;;;4.40;99.90;;;;;;5025527;28;19916;-68
2023/01/26 05:08:36;;;;;;;;;;;4.40;99.90;;;;;;5023375;28;19985;-68
2023/01/26 05:11:02;;;;;;;;;;;4.40;99.90;;;;;;5026720;28;19925;-68
2023/01/26 05:13:27;;;;;;;;;;;4.40;99.90;;;;;;5015551;28;20324;-69
2023/01/26 05:15:53;;;;;;;;;;;4.40;99.90;;;;;;5022277;28;19916;-66
2023/01/26 05:18:19;;;;;;;;;;;4.40;99.90;;;;;;5026713;28;19909;-68
2023/01/26 05:20:45;;;;;;;;;;;4.40;99.90;;;;;;5026524;28;20371;-68
2023/01/26 05:23:10;;;;;;;;;;;4.40;99.90;;;;;;5027194;28;20859;-68
2023/01/26 05:25:36;;;;;;;;;;;4.30;99.90;;;;;;5024275;28;20004;-68
2023/01/26 05:28:02;;;;;;;;;;;4.20;99.90;;;;;;5027632;28;19955;-68
2023/01/26 05:30:27;;;;;;;;;;;4.00;99.90;;;;;;5024109;28;20384;-68
2023/01/26 05:32:53;;;;;;;;;;;3.90;99.90;;;;;;5028825;28;20359;-68
2023/01/26 05:35:18;;;;;;;;;;;3.90;99.90;;;;;;5024428;28;20419;-68
2023/01/26 05:37:44;;;;;;;;;;;3.70;99.90;;;;;;5026025;28;20316;-68
2023/01/26 05:40:11;;;;;;;;;;;3.70;99.90;;;;;;5020435;28;19910;-68
2023/01/26 05:42:36;;;;;;;;;;;3.50;99.90;;;;;;5028187;28;19950;-68
2023/01/26 05:45:03;;;;;;;;;;;3.60;99.90;;;;;;5026272;28;19917;-68
2023/01/26 05:47:28;;;;;;;;;;;3.60;99.90;;;;;;5029048;28;20384;-68
2023/01/26 05:49:54;;;;;;;;;;;3.60;99.90;;;;;;5023098;28;19913;-68
2023/01/26 05:52:20;;;;;;;;;;;3.60;99.90;;;;;;5024824;28;20420;-68
2023/01/26 05:54:46;;;;;;;;;;;3.50;99.90;;;;;;5024391;28;19946;-68
2023/01/26 05:57:12;;;;;;;;;;;3.50;99.90;;;;;;5016952;28;20309;-68
2023/01/26 05:59:37;;;;;;;;;;;3.40;99.90;;;;;;5019918;28;19980;-68
2023/01/26 06:02:03;;;;;;;;;;;3.40;99.90;;;;;;5020469;28;19909;-68
2023/01/26 06:04:29;;;;;;;;;;;3.40;99.90;;;;;;5024478;28;19916;-68
2023/01/26 06:06:55;;;;;;;;;;;3.30;99.90;;;;;;5020851;28;19910;-68
2023/01/26 06:09:21;;;;;;;;;;;3.30;99.90;;;;;;5014971;28;19909;-68
2023/01/26 06:11:47;;;;;;;;;;;3.20;99.90;;;;;;5022117;28;19923;-68
2023/01/26 06:14:12;;;;;;;;;;;3.20;99.90;;;;;;5012411;28;19913;-68
2023/01/26 06:16:38;;;;;;;;;;;3.20;99.90;;;;;;5025162;28;19909;-68
2023/01/26 06:19:04;;;;;;;;;;;3.10;99.90;;;;;;5013294;28;19956;-69
2023/01/26 06:21:30;;;;;;;;;;;3.20;99.90;;;;;;5028106;28;19913;-68
2023/01/26 06:23:56;;;;;;;;;;;3.20;99.90;;;;;;5012427;28;20011;-68
2023/01/26 06:26:23;;;;;;;;;;;3.10;99.90;;;;;;5020048;28;19995;-69
2023/01/26 06:28:49;;;;;;;;;;;3.00;99.90;;;;;;5016554;28;19909;-68
2023/01/26 06:31:14;;;;;;;;;;;3.00;99.90;;;;;;5019172;28;19917;-67
2023/01/26 06:33:40;;;;;;;;;;;2.90;99.90;;;;;;5027888;28;20380;-68
2023/01/26 06:36:08;;;;;;;;;;;2.90;99.90;;;;;;5028992;28;19988;-68
2023/01/26 06:38:34;;;;;;;;;;;2.90;99.90;;;;;;5019546;28;19909;-67
2023/01/26 06:41:01;;;;;;;;;;;3.00;99.90;;;;;;5018819;28;20265;-68
2023/01/26 06:43:31;;;;;;;;;;;3.00;99.90;;;;;;5018080;28;19917;-68
2023/01/26 06:45:57;;;;;;;;;;;2.90;99.90;;;;;;5013476;28;20518;-69
2023/01/26 06:48:27;;;;;;;;;;;2.90;99.90;;;;;;5027074;28;20043;-69
2023/01/26 06:50:55;;;;;;;;;;;2.90;99.90;;;;;;5023208;28;19924;-68
2023/01/26 06:53:27;;;;;;;;;;;2.90;99.90;;;;;;5024685;28;19931;-68
2023/01/26 06:55:53;;;;;;;;;;;2.90;99.90;;;;;;5025894;28;19931;-69
2023/01/26 06:58:19;;;;;;;;;;;2.90;99.90;;;;;;5026218;28;19916;-69
2023/01/26 07:00:45;;;;;;;;;;;2.80;99.90;;;;;;5028382;28;20357;-68
2023/01/26 07:03:11;;;;;;;;;;;2.80;99.90;;;;;;5020615;28;20004;-67
2023/01/26 07:05:37;;;;;;;;;;;2.90;99.90;;;;;;5021672;28;19957;-69
2023/01/26 07:08:05;;;;;;;;;;;2.90;99.90;;;;;;5019638;28;20006;-68
2023/01/26 07:10:31;;;;;;;;;;;3.00;99.90;;;;;;5023132;28;19932;-67
2023/01/26 07:12:56;;;;;;;;;;;3.10;99.90;;;;;;5022563;28;19909;-68
2023/01/26 07:15:22;;;;;;;;;;;3.20;99.90;;;;;;5018525;28;19913;-67
2023/01/26 07:17:48;;;;;;;;;;;3.40;99.90;;;;;;5042036;28;19931;-67
2023/01/26 07:20:13;;;;;;;;;;;3.50;99.90;;;;;;5017040;28;19955;-68
2023/01/26 07:22:39;;;;;;;;;;;3.70;99.90;;;;;;5027015;28;19913;-67
2023/01/26 07:25:05;;;;;;;;;;;3.70;99.90;;;;;;5021426;28;19909;-68
2023/01/26 07:27:31;;;;;;;;;;;3.80;99.90;;;;;;5023736;28;19909;-68
2023/01/26 07:29:56;;;;;;;;;;;3.90;99.90;;;;;;5026138;28;19913;-69
2023/01/26 07:32:22;;;;;;;;;;;4.00;99.90;;;;;;5014250;28;20334;-68
2023/01/26 07:34:48;;;;;;;;;;;4.10;99.90;;;;;;5020787;28;20346;-68
2023/01/26 07:37:13;;;;;;;;;;;4.20;99.90;;;;;;5025963;28;19916;-69
2023/01/26 07:39:39;;;;;;;;;;;4.30;99.90;;;;;;5026170;28;19909;-68
2023/01/26 07:42:05;;;;;;;;;;;4.40;99.90;;;;;;5025225;28;19909;-67
2023/01/26 07:44:30;;;;;;;;;;;4.40;99.90;;;;;;5024138;28;19956;-68
2023/01/26 07:46:56;;;;;;;;;;;4.50;99.90;;;;;;5021744;28;20316;-68
2023/01/26 07:49:22;;;;;;;;;;;4.60;99.90;;;;;;5020961;28;19952;-68
2023/01/26 07:51:47;;;;;;;;;;;4.50;99.90;;;;;;5022149;28;19925;-68
2023/01/26 07:54:13;;;;;;;;;;;4.60;99.90;;;;;;5022875;28;19913;-68
2023/01/26 07:56:38;;;;;;;;;;;4.70;99.90;;;;;;5028500;28;19909;-68
2023/01/26 07:59:04;;;;;;;;;;;4.70;99.90;;;;;;5026910;28;19913;-68
2023/01/26 08:01:29;;;;;;;;;;;4.70;99.90;;;;;;5027509;28;20356;-70
2023/01/26 08:03:55;;;;;;;;;;;4.80;99.90;;;;;;5026248;28;19909;-68
2023/01/26 08:06:21;;;;;;;;;;;4.80;99.90;;;;;;5028455;28;19909;-68
2023/01/26 08:08:51;;;;;;;;;;;4.90;99.90;;;;;;5027228;28;19913;-69
2023/01/26 08:11:18;;;;;;;;;;;4.90;99.90;;;;;;5027413;28;19921;-70
2023/01/26 08:13:43;;;;;;;;;;;4.90;99.90;;;;;;5028085;28;20261;-69
2023/01/26 08:16:10;;;;;;;;;;;5.00;99.90;;;;;;5027197;28;19916;-69
2023/01/26 08:18:37;;;;;;;;;;;5.00;99.90;;;;;;5031229;28;19909;-69
2023/01/26 08:21:03;;;;;;;;;;;5.10;99.90;;;;;;5029135;28;19913;-66
2023/01/26 08:23:28;;;;;;;;;;;5.20;99.90;;;;;;5031571;28;20357;-69
2023/01/26 08:25:54;;;;;;;;;;;5.20;99.90;;;;;;5028845;28;19945;-66
2023/01/26 08:28:20;;;;;;;;;;;5.20;99.90;;;;;;5031375;28;19995;-68
2023/01/26 08:30:46;;;;;;;;;;;5.30;99.90;;;;;;5030975;28;19917;-68
2023/01/26 08:33:11;;;;;;;;;;;5.40;99.90;;;;;;5029206;28;19916;-69
2023/01/26 08:35:37;;;;;;;;;;;5.40;99.90;;;;;;5030929;28;19908;-70
2023/01/26 08:38:03;;;;;;;;;;;5.40;99.90;;;;;;5029370;28;19913;-69
2023/01/26 08:40:28;;;;;;;;;;;5.40;99.90;;;;;;5024595;28;19909;-70
2023/01/26 08:42:54;;;;;;;;;;;5.40;99.90;;;;;;5020321;28;20416;-66
2023/01/26 08:45:19;;;;;;;;;;;5.50;99.90;;;;;;5025975;28;19954;-70
2023/01/26 08:47:49;;;;;;;;;;;5.60;99.90;;;;;;5027778;28;19933;-69
2023/01/26 08:50:14;;;;;;;;;;;5.60;99.90;;;;;;5023233;28;19913;-68
2023/01/26 08:52:40;;;;;;;;;;;5.70;99.90;;;;;;5030937;28;20391;-68
2023/01/26 08:55:06;;;;;;;;;;;5.60;99.90;;;;;;5024839;28;19910;-69
2023/01/26 08:57:31;;;;;;;;;;;5.70;99.90;;;;;;5029479;28;19999;-68
2023/01/26 08:59:57;;;;;;;;;;;5.80;99.90;;;;;;5027185;28;20379;-68
2023/01/26 09:02:22;;;;;;;;;;;5.70;99.90;;;;;;5029250;28;19916;-69
2023/01/26 09:04:48;;;;;;;;;;;5.80;99.90;;;;;;5029390;28;20376;-69
2023/01/26 09:07:13;;;;;;;;;;;5.90;99.90;;;;;;5026407;28;20372;-69
2023/01/26 09:09:39;;;;;;;;;;;6.00;99.90;;;;;;5029575;28;19916;-70
2023/01/26 09:12:05;;;;;;;;;;;6.00;99.90;;;;;;5026852;28;20379;-70
2023/01/26 09:14:30;;;;;;;;;;;6.00;99.90;;;;;;5023784;28;19916;-69
2023/01/26 09:16:56;;;;;;;;;;;6.00;99.90;;;;;;5024348;28;19916;-68
2023/01/26 09:19:21;;;;;;;;;;;6.00;99.90;;;;;;5025938;28;20341;-67
2023/01/26 09:21:51;;;;;;;;;;;6.10;99.90;;;;;;5022709;28;19920;-69
2023/01/26 09:24:16;;;;;;;;;;;6.10;99.90;;;;;;5021834;28;19909;-68
2023/01/26 09:26:42;;;;;;;;;;;6.20;99.90;;;;;;5028847;28;19932;-69
2023/01/26 09:29:07;;;;;;;;;;;6.20;99.90;;;;;;5021893;28;19909;-68
2023/01/26 09:31:33;;;;;;;;;;;6.20;99.90;;;;;;5027893;28;19925;-68
2023/01/26 09:33:58;;;;;;;;;;;6.20;99.90;;;;;;5026372;28;19909;-69
2023/01/26 09:36:24;;;;;;;;;;;6.20;99.90;;;;;;5021775;28;19970;-68
2023/01/26 09:38:50;;;;;;;;;;;6.30;99.90;;;;;;5024505;28;19956;-69
2023/01/26 09:41:15;;;;;;;;;;;6.40;99.90;;;;;;5022521;28;20570;-66
2023/01/26 09:44:10;;;;;;;;;;;6.40;99.90;;;;;;5025856;28;20011;-68
2023/01/26 09:46:48;;;;;;;;;;;6.40;99.90;;;;;;4976919;28;19925;-69
2023/01/26 09:49:28;;;;;;;;;;;6.50;99.90;;;;;;4964184;28;20285;-69
2023/01/26 09:52:11;;;;;;;;;;;6.70;99.90;;;;;;4978723;28;19918;-68
2023/01/26 09:54:57;;;;;;;;;;;6.60;99.90;;;;;;4981973;28;19910;-68
2023/01/26 09:57:37;;;;;;;;;;;6.70;99.90;;;;;;4986383;28;19910;-69
2023/01/26 10:00:10;;;;;;;;;;;6.60;99.90;;;;;;4983175;28;21454;-67
2023/01/26 10:02:42;;;;;;;;;;;6.60;99.90;;;;;;4981569;28;19968;-73
2023/01/26 10:05:13;;;;;;;;;;;6.60;99.90;;;;;;4981785;28;20376;-68
2023/01/26 10:07:42;;;;;;;;;;;6.60;99.90;;;;;;4985036;28;19988;-69
2023/01/26 10:10:14;;;;;;;;;;;6.60;99.90;;;;;;4983558;28;19969;-68
2023/01/26 10:12:43;;;;;;;;;;;6.60;99.90;;;;;;4983753;28;19921;-72
2023/01/26 10:15:22;;;;;;;;;;;6.80;99.90;;;;;;4986153;28;20501;-68
2023/01/26 10:17:49;;;;;;;;;;;7.00;99.90;;;;;;4985095;28;19941;-70
2023/01/26 10:20:26;;;;;;;;;;;7.20;99.90;;;;;;4980383;28;19909;-69
2023/01/26 10:22:53;;;;;;;;;;;7.40;99.90;;;;;;4990836;28;19916;-68
2023/01/26 10:25:29;;;;;;;;;;;7.50;99.90;;;;;;5020742;28;19913;-68
2023/01/26 10:27:55;;;;;;;;;;;7.50;99.90;;;;;;5021193;28;20336;-69
2023/01/26 10:30:21;;;;;;;;;;;7.50;99.90;;;;;;5026927;28;19963;-69
2023/01/26 10:32:51;;;;;;;;;;;7.40;99.90;;;;;;5029215;28;20246;-68
2023/01/26 10:35:19;;;;;;;;;;;7.30;99.90;;;;;;5020192;28;19976;-67
2023/01/26 10:37:45;;;;;;;;;;;7.20;99.90;;;;;;5023157;28;20436;-69
2023/01/26 10:40:11;;;;;;;;;;;7.40;99.90;;;;;;5014671;28;20351;-69
2023/01/26 10:42:38;;;;;;;;;;;7.50;99.90;;;;;;5022399;28;19915;-69
2023/01/26 10:45:23;;;;;;;;;;;7.50;99.90;;;;;;5021384;28;19924;-69
2023/01/26 10:48:02;;;;;;;;;;;7.50;99.90;;;;;;5025528;28;19913;-68
2023/01/26 10:50:28;;;;;;;;;;;7.40;99.90;;;;;;5025817;28;20396;-69
2023/01/26 10:53:01;;;;;;;;;;;7.40;99.90;;;;;;5038896;28;20011;-68
2023/01/26 10:55:27;;;;;;;;;;;7.50;99.90;;;;;;5027706;28;19909;-69
2023/01/26 10:57:53;;;;;;;;;;;7.40;99.90;;;;;;5024548;28;19915;-68
2023/01/26 11:00:22;;;;;;;;;;;7.60;99.90;;;;;;5026284;28;19909;-68
2023/01/26 11:02:49;;;;;;;;;;;7.70;99.90;;;;;;5026725;28;19936;-69
2023/01/26 11:05:19;;;;;;;;;;;7.60;99.90;;;;;;5015546;28;20357;-67
2023/01/26 11:07:46;;;;;;;;;;;7.60;99.90;;;;;;5039404;28;19909;-68
2023/01/26 11:10:14;;;;;;;;;;;7.60;99.90;;;;;;5023227;28;20343;-68
2023/01/26 11:12:40;;;;;;;;;;;7.60;99.90;;;;;;5025664;28;19913;-70
2023/01/26 11:15:14;;;;;;;;;;;7.60;99.90;;;;;;5018520;28;19992;-70
2023/01/26 11:18:00;;;;;;;;;;;7.60;99.90;;;;;;5021016;28;20342;-70
2023/01/26 11:20:26;;;;;;;;;;;7.60;99.90;;;;;;5020082;28;20429;-70
2023/01/26 11:23:03;;;;;;;;;;;7.70;99.90;;;;;;5027570;28;19963;-69
2023/01/26 11:25:32;;;;;;;;;;;7.90;99.90;;;;;;5018847;28;19972;-67
2023/01/26 11:28:04;;;;;;;;;;;8.10;99.90;;;;;;5022100;28;19909;-68
2023/01/26 11:30:45;;;;;;;;;;;8.20;99.90;;;;;;5017681;28;19917;-69
2023/01/26 11:33:24;;;;;;;;;;;8.30;99.90;;;;;;5024503;28;19908;-68
2023/01/26 11:35:50;;;;;;;;;;;8.30;99.90;;;;;;5026115;28;19913;-68
2023/01/26 11:38:35;;;;;;;;;;;8.30;99.90;;;;;;5016508;28;19916;-69
2023/01/26 11:41:19;;;;;;;;;;;8.80;99.90;;;;;;5017208;28;19909;-68
2023/01/26 11:44:08;;;;;;;;;;;8.90;99.90;;;;;;5037674;28;20288;-68
2023/01/26 11:46:40;;;;;;;;;;;8.90;99.90;;;;;;4948505;28;19914;-69
2023/01/26 11:49:08;;;;;;;;;;;8.80;99.90;;;;;;4957184;28;19933;-68
2023/01/26 11:51:55;;;;;;;;;;;8.80;99.90;;;;;;4964003;28;19918;-69
2023/01/26 11:54:47;;;;;;;;;;;8.90;99.90;;;;;;4961739;28;19957;-69
2023/01/26 11:57:35;;;;;;;;;;;8.70;99.90;;;;;;4963855;28;20361;-70
2023/01/26 12:00:04;;;;;;;;;;;8.60;99.90;;;;;;4950931;28;19950;-68
2023/01/26 12:02:33;;;;;;;;;;;8.40;99.90;;;;;;4958468;28;20371;-70
2023/01/26 12:05:02;;;;;;;;;;;8.40;99.90;;;;;;4964176;28;19922;-69
2023/01/26 12:07:28;;;;;;;;;;;8.20;99.90;;;;;;4967848;28;19910;-69
2023/01/26 12:09:53;;;;;;;;;;;8.00;99.90;;;;;;4963717;28;19917;-68
2023/01/26 12:12:38;;;;;;;;;;;8.00;99.90;;;;;;4963306;28;19914;-69
2023/01/26 12:15:03;;;;;;;;;;;8.00;99.90;;;;;;4948402;28;19920;-70
2023/01/26 12:17:29;;;;;;;;;;;8.10;99.90;;;;;;4964715;28;19917;-68
2023/01/26 12:20:13;;;;;;;;;;;8.10;99.90;;;;;;4966301;28;19910;-69
2023/01/26 12:22:48;;;;;;;;;;;8.10;99.90;;;;;;4969224;28;20009;-68
2023/01/26 12:25:21;;;;;;;;;;;8.00;99.90;;;;;;5028633;28;19924;-68
2023/01/26 12:27:54;;;;;;;;;;;7.80;99.90;;;;;;5029776;28;19916;-68
2023/01/26 12:30:27;;;;;;;;;;;7.80;99.90;;;;;;5028061;28;19924;-68
2023/01/26 12:32:53;;;;;;;;;;;7.70;99.90;;;;;;5023267;28;19913;-68
2023/01/26 12:35:24;;;;;;;;;;;7.70;99.90;;;;;;5026828;28;19909;-68
2023/01/26 12:37:55;;;;;;;;;;;7.70;99.90;;;;;;5022062;28;19916;-70
2023/01/26 12:40:21;;;;;;;;;;;7.70;99.90;;;;;;5019438;28;19913;-69
2023/01/26 12:42:46;;;;;;;;;;;7.80;99.90;;;;;;5025622;28;19928;-69
2023/01/26 12:45:20;;;;;;;;;;;7.90;99.90;;;;;;5024226;28;19921;-69
2023/01/26 12:47:51;;;;;;;;;;;7.90;99.90;;;;;;5026902;28;19982;-68
2023/01/26 12:50:23;;;;;;;;;;;7.90;99.90;;;;;;5024468;28;19913;-69
2023/01/26 12:53:05;;;;;;;;;;;7.90;99.90;;;;;;5029603;28;19920;-69
2023/01/26 12:55:37;;;;;;;;;;;7.80;99.90;;;;;;5024045;28;19939;-69
2023/01/26 12:58:07;;;;;;;;;;;7.80;99.90;;;;;;5025175;28;19913;-68
2023/01/26 13:00:34;;;;;;;;;;;7.80;99.90;;;;;;5028363;28;20007;-69
2023/01/26 13:03:17;;;;;;;;;;;7.80;99.90;;;;;;5026414;28;19931;-68
2023/01/26 13:06:20;;;;;;;;;;;7.80;99.90;;;;;;5027040;28;19917;-68
2023/01/26 13:08:52;;;;;;;;;;;7.80;99.90;;;;;;5023611;28;19963;-69
2023/01/26 13:11:36;;;;;;;;;;;7.90;99.90;;;;;;5018438;28;19917;-68
2023/01/26 13:14:22;;;;;;;;;;;8.00;99.90;;;;;;5021939;28;20004;-67
2023/01/26 13:16:47;;;;;;;;;;;8.10;99.90;;;;;;5018332;28;19968;-67
2023/01/26 13:19:33;;;;;;;;;;;8.10;99.90;;;;;;5012576;28;19914;-69
2023/01/26 13:21:58;;;;;;;;;;;8.10;99.90;;;;;;5023549;28;19956;-69
2023/01/26 13:24:24;;;;;;;;;;;8.10;99.90;;;;;;5026642;28;19909;-69
2023/01/26 13:26:54;;;;;;;;;;;8.10;99.90;;;;;;5021209;28;19909;-69
2023/01/26 13:29:31;;;;;;;;;;;8.00;99.90;;;;;;5015890;28;19909;-68
2023/01/26 13:32:09;;;;;;;;;;;8.00;99.90;;;;;;5016224;28;19936;-68
2023/01/26 13:34:37;;;;;;;;;;;7.90;99.90;;;;;;5018264;28;19913;-69
2023/01/26 13:37:15;;;;;;;;;;;7.80;99.90;;;;;;5026592;28;19913;-69
2023/01/26 13:39:42;;;;;;;;;;;7.90;99.90;;;;;;5021569;28;19909;-69
2023/01/26 13:42:31;;;;;;;;;;;7.90;99.90;;;;;;5026557;28;19909;-68
2023/01/26 13:45:02;;;;;;;;;;;7.80;99.90;;;;;;5021716;28;19917;-68
2023/01/26 13:47:37;;;;;;;;;;;7.90;99.90;;;;;;5028240;28;19909;-69
2023/01/26 13:50:20;;;;;;;;;;;8.00;99.90;;;;;;5019606;28;20029;-69
2023/01/26 13:52:52;;;;;;;;;;;8.00;99.90;;;;;;5021783;28;19920;-68
2023/01/26 13:55:26;;;;;;;;;;;8.00;99.90;;;;;;5015302;28;19955;-70
2023/01/26 13:58:11;;;;;;;;;;;8.00;99.90;;;;;;5022841;28;20313;-70
2023/01/26 14:00:37;;;;;;;;;;;7.90;99.90;;;;;;5015978;28;20404;-69
2023/01/26 14:03:03;;;;;;;;;;;7.90;99.90;;;;;;5023904;28;19920;-68
2023/01/26 14:05:30;;;;;;;;;;;7.80;99.90;;;;;;5021194;28;19916;-68
2023/01/26 14:07:56;;;;;;;;;;;7.80;99.90;;;;;;5015566;28;19935;-70
2023/01/26 14:10:22;;;;;;;;;;;7.70;99.90;;;;;;5014344;28;19959;-68
2023/01/26 14:12:50;;;;;;;;;;;7.70;99.90;;;;;;5020784;28;19913;-69
2023/01/26 14:15:21;;;;;;;;;;;7.80;99.90;;;;;;5024746;28;19909;-71
2023/01/26 14:17:49;;;;;;;;;;;7.90;99.90;;;;;;5027234;28;19916;-69
2023/01/26 14:20:17;;;;;;;;;;;8.00;99.90;;;;;;5019733;28;19910;-70
2023/01/26 14:22:43;;;;;;;;;;;8.10;99.90;;;;;;5018734;28;20391;-70
2023/01/26 14:25:11;;;;;;;;;;;8.20;99.90;;;;;;5024938;28;20000;-70
2023/01/26 14:27:39;;;;;;;;;;;8.30;99.90;;;;;;5016617;28;19909;-68
2023/01/26 14:30:24;;;;;;;;;;;8.30;99.90;;;;;;5022604;28;20361;-70
2023/01/26 14:32:54;;;;;;;;;;;8.40;99.90;;;;;;5017290;28;19938;-70
2023/01/26 14:35:22;;;;;;;;;;;8.50;99.90;;;;;;5018287;28;19913;-68
2023/01/26 14:37:48;;;;;;;;;;;8.60;99.90;;;;;;5020844;28;20552;-69
2023/01/26 14:40:23;;;;;;;;;;;8.70;99.90;;;;;;5018123;28;20007;-69
2023/01/26 14:42:49;;;;;;;;;;;8.70;99.90;;;;;;5012974;28;19913;-71
2023/01/26 14:45:15;;;;;;;;;;;8.70;99.90;;;;;;5018648;28;20292;-68
2023/01/26 14:47:41;;;;;;;;;;;8.70;99.90;;;;;;5027817;28;19966;-69
2023/01/26 14:50:15;;;;;;;;;;;8.90;99.90;;;;;;5017707;28;20307;-71
2023/01/26 14:52:43;;;;;;;;;;;9.20;99.90;;;;;;5023076;28;19909;-70
2023/01/26 14:55:11;;;;;;;;;;;9.40;99.90;;;;;;5013199;28;19917;-71
2023/01/26 14:57:38;;;;;;;;;;;9.40;99.90;;;;;;5027402;28;20038;-69
2023/01/26 15:00:08;;;;;;;;;;;9.20;99.90;;;;;;5027579;28;19913;-69
2023/01/26 15:02:35;;;;;;;;;;;9.00;99.90;;;;;;5027852;28;19935;-69
2023/01/26 15:05:03;;;;;;;;;;;8.80;99.90;;;;;;5027102;28;19913;-69
2023/01/26 15:07:33;;;;;;;;;;;8.70;99.90;;;;;;5028728;28;19909;-70
2023/01/26 15:09:59;;;;;;;;;;;8.70;99.90;;;;;;5027518;28;19920;-69
2023/01/26 15:12:25;;;;;;;;;;;9.00;99.90;;;;;;5027973;28;19963;-69
2023/01/26 15:14:55;;;;;;;;;;;9.60;99.90;;;;;;5029162;28;20373;-70
2023/01/26 15:17:37;;;;;;;;;;;9.80;99.90;;;;;;5029121;28;19909;-68
2023/01/26 15:20:23;;;;;;;;;;;9.60;99.90;;;;;;5024640;28;19975;-69
2023/01/26 15:22:49;;;;;;;;;;;9.30;99.90;;;;;;5017158;28;19949;-69